Time;durP1;ratioP1;P1;durP2;ratioP2;P2;SDS_P1;SDS_P2;PMS_P1;PMS_P2;Temp;Humidity;BMP_temperature;BMP_pressure;BME280_temperature;BME280_humidity;BME280_pressure;Samples;Min_cycle;Max_cycle;Signal;HPM_P1;HPM_P2
2022/10/02 00:00:07;;;;;;;11.32;2.20;;;;;;;17.76;64.53;101433.91;6213791;22;20012;-74
2022/10/02 00:02:42;;;;;;;10.77;2.35;;;;;;;17.82;64.63;101435.63;6214014;23;20012;-74
2022/10/02 00:05:33;;;;;;;11.57;2.20;;;;;;;17.81;64.67;101439.13;6214852;23;20145;-75
2022/10/02 00:08:05;;;;;;;10.07;2.38;;;;;;;17.82;64.63;101438.25;6213021;22;20475;-74
2022/10/02 00:10:46;;;;;;;11.35;1.90;;;;;;;17.81;64.93;101437.38;6213666;22;20546;-74
2022/10/02 00:13:16;;;;;;;9.77;2.10;;;;;;;17.81;64.98;101444.41;6217475;22;20034;-74
2022/10/02 00:15:43;;;;;;;11.98;2.25;;;;;;;17.65;65.80;101445.41;6213682;22;20019;-74
2022/10/02 00:18:13;;;;;;;10.93;2.20;;;;;;;17.81;65.11;101450.56;6213681;22;20004;-74
2022/10/02 00:21:02;;;;;;;8.30;2.08;;;;;;;17.80;65.41;101447.97;6212793;22;20012;-74
2022/10/02 00:23:34;;;;;;;16.67;2.72;;;;;;;17.76;65.29;101446.22;6216843;22;20087;-74
2022/10/02 00:26:19;;;;;;;9.48;2.20;;;;;;;17.76;65.59;101440.94;6220722;22;20008;-74
2022/10/02 00:28:44;;;;;;;8.80;2.30;;;;;;;17.76;65.35;101438.28;6217127;23;20019;-74
2022/10/02 00:31:21;;;;;;;11.27;2.50;;;;;;;17.82;65.22;101440.88;6214265;23;20016;-74
2022/10/02 00:34:20;;;;;;;12.68;2.22;;;;;;;17.79;65.80;101448.84;6215450;22;20012;-74
2022/10/02 00:37:02;;;;;;;13.52;2.67;;;;;;;17.90;65.66;101456.66;6220046;22;20340;-75
2022/10/02 00:39:52;;;;;;;13.52;2.47;;;;;;;17.96;66.12;101452.22;6216519;22;20014;-74
2022/10/02 00:42:52;;;;;;;13.23;2.40;;;;;;;18.07;65.82;101453.00;6215399;22;20343;-74
2022/10/02 00:46:11;;;;;;;14.75;2.60;;;;;;;18.23;65.72;101453.78;6214684;22;20070;-74
2022/10/02 00:48:48;;;;;;;15.73;2.42;;;;;;;18.39;65.44;101452.72;6183851;23;20016;-75
2022/10/02 00:51:32;;;;;;;13.55;2.25;;;;;;;18.56;64.91;101447.31;6212016;22;20016;-75
2022/10/02 00:54:33;;;;;;;13.45;2.75;;;;;;;18.56;64.47;101449.94;6215206;23;20027;-75
2022/10/02 00:57:01;;;;;;;17.05;2.78;;;;;;;18.53;64.87;101447.31;6161537;22;20016;-75
2022/10/02 00:59:50;;;;;;;15.30;2.60;;;;;;;18.73;64.14;101444.47;6217537;23;20008;-75
2022/10/02 01:02:30;;;;;;;17.63;2.67;;;;;;;18.66;64.13;101456.03;6207662;22;20423;-75
2022/10/02 01:05:06;;;;;;;10.68;2.38;;;;;;;18.59;64.24;101452.56;6217281;23;20039;-75
2022/10/02 01:07:35;;;;;;;18.13;2.78;;;;;;;18.41;65.12;101461.53;6218169;22;20340;-75
2022/10/02 01:10:00;;;;;;;18.15;2.92;;;;;;;18.48;64.83;101460.53;6213822;22;20008;-76
2022/10/02 01:12:26;;;;;;;17.00;2.63;;;;;;;18.33;65.15;101465.09;6214898;22;20012;-75
2022/10/02 01:14:51;;;;;;;15.48;2.90;;;;;;;18.53;64.31;101471.09;6210267;22;20008;-74
2022/10/02 01:17:31;;;;;;;15.13;2.38;;;;;;;18.64;63.97;101469.25;6212155;23;20447;-75
2022/10/02 01:20:03;;;;;;;16.67;2.38;;;;;;;18.59;64.38;101464.00;6214998;22;20004;-73
2022/10/02 01:22:31;;;;;;;17.30;2.50;;;;;;;18.64;64.24;101462.19;6211769;22;20008;-76
2022/10/02 01:25:00;;;;;;;18.48;2.70;;;;;;;18.54;64.50;101462.28;6216710;23;20019;-75
2022/10/02 01:27:26;;;;;;;16.50;2.45;;;;;;;18.67;64.08;101463.03;6214466;22;20452;-75
2022/10/02 01:29:56;;;;;;;14.75;2.45;;;;;;;18.69;64.25;101456.84;6216912;22;20592;-75
2022/10/02 01:32:26;;;;;;;13.57;2.40;;;;;;;18.55;64.55;101453.47;6210828;22;20445;-76
2022/10/02 01:34:53;;;;;;;14.48;2.47;;;;;;;18.72;63.95;101464.75;6218077;22;20080;-74
2022/10/02 01:37:25;;;;;;;18.70;2.70;;;;;;;18.74;63.89;101462.97;6216322;22;20019;-75
2022/10/02 01:39:51;;;;;;;15.48;2.38;;;;;;;18.62;64.21;101469.25;6213021;22;20031;-75
2022/10/02 01:42:16;;;;;;;14.70;2.65;;;;;;;18.83;63.36;101469.91;6212156;22;20746;-75
2022/10/02 01:44:44;;;;;;;17.42;2.80;;;;;;;18.73;63.52;101477.06;6214400;22;20018;-76
2022/10/02 01:47:15;;;;;;;14.25;2.75;;;;;;;18.51;64.26;101484.28;6218960;22;20536;-74
2022/10/02 01:50:04;;;;;;;14.90;2.50;;;;;;;18.52;63.97;101474.63;6220743;22;20424;-76
2022/10/02 01:52:45;;;;;;;17.48;3.08;;;;;;;18.39;64.17;101479.13;6218129;22;20317;-76
2022/10/02 01:55:33;;;;;;;16.02;2.67;;;;;;;18.46;64.16;101491.38;6219089;22;20008;-75
2022/10/02 01:58:23;;;;;;;19.10;2.45;;;;;;;18.41;64.14;101489.69;6212835;22;20012;-73
2022/10/02 02:01:09;;;;;;;14.85;2.55;;;;;;;18.71;62.86;101486.78;6218449;23;20015;-76
2022/10/02 02:04:06;;;;;;;12.27;2.10;;;;;;;18.44;63.80;101493.16;6217429;22;20027;-75
2022/10/02 02:06:45;;;;;;;13.82;2.35;;;;;;;18.47;64.22;101497.56;6218845;22;20080;-76
2022/10/02 02:09:39;;;;;;;12.70;2.17;;;;;;;18.46;63.70;101485.22;6211385;22;20062;-75
2022/10/02 02:12:13;;;;;;;12.88;2.42;;;;;;;18.36;64.07;101486.22;6214494;22;20020;-75
2022/10/02 02:14:56;;;;;;;13.45;2.25;;;;;;;18.21;64.85;101490.72;6213999;22;20032;-74
2022/10/02 02:17:28;;;;;;;15.65;2.40;;;;;;;18.25;65.07;101488.94;6214359;22;20027;-75
2022/10/02 02:20:14;;;;;;;20.90;2.97;;;;;;;18.00;65.65;101490.00;6216067;23;20381;-75
2022/10/02 02:22:49;;;;;;;14.77;2.97;;;;;;;18.31;64.98;101490.63;6217353;22;20015;-75
2022/10/02 02:25:18;;;;;;;16.27;2.30;;;;;;;18.51;64.29;101492.22;6217491;22;20008;-74
2022/10/02 02:27:49;;;;;;;16.90;2.90;;;;;;;18.49;64.38;101494.00;6214734;22;20011;-74
2022/10/02 02:30:16;;;;;;;13.77;2.17;;;;;;;18.39;64.64;101486.16;6218924;22;20085;-74
2022/10/02 02:32:47;;;;;;;17.52;2.45;;;;;;;18.37;64.76;101493.22;6217469;22;20098;-74
2022/10/02 02:35:45;;;;;;;12.88;2.20;;;;;;;18.30;64.94;101499.47;6221465;22;20097;-74
2022/10/02 02:38:17;;;;;;;14.73;2.58;;;;;;;18.44;64.52;101500.19;6213046;22;20008;-74
2022/10/02 02:40:45;;;;;;;15.13;2.58;;;;;;;18.30;64.90;101499.47;6218140;22;20185;-74
2022/10/02 02:43:32;;;;;;;10.02;2.15;;;;;;;18.56;64.55;101495.72;6216943;22;20554;-74
2022/10/02 02:46:04;;;;;;;12.45;2.13;;;;;;;18.60;64.05;101492.16;6213554;22;20046;-75
2022/10/02 02:48:35;;;;;;;14.48;2.53;;;;;;;18.65;63.62;101497.41;6220644;22;20015;-74
2022/10/02 02:51:28;;;;;;;15.65;3.00;;;;;;;18.54;63.94;101499.25;6213515;22;20114;-74
2022/10/02 02:54:03;;;;;;;13.07;2.55;;;;;;;18.46;63.93;101499.31;6218210;23;20310;-75
2022/10/02 02:56:30;;;;;;;12.25;2.67;;;;;;;18.13;65.62;101510.13;6214347;22;20015;-74
2022/10/02 02:59:06;;;;;;;13.45;2.50;;;;;;;18.07;65.48;101505.78;6216692;22;20448;-74
2022/10/02 03:01:31;;;;;;;14.10;2.50;;;;;;;18.06;65.55;101506.66;6218493;22;20008;-75
2022/10/02 03:03:57;;;;;;;12.68;2.40;;;;;;;18.18;64.48;101514.50;6214843;22;20577;-76
2022/10/02 03:06:30;;;;;;;12.57;1.92;;;;;;;18.17;64.35;101511.88;6214663;22;20632;-76
2022/10/02 03:08:56;;;;;;;13.88;2.30;;;;;;;18.09;64.20;101509.28;6236344;22;20012;-75
2022/10/02 03:11:42;;;;;;;11.60;1.92;;;;;;;18.04;64.04;101507.59;6212939;22;20011;-75
2022/10/02 03:14:35;;;;;;;10.40;2.05;;;;;;;18.23;63.55;101512.72;6212033;22;20008;-76
2022/10/02 03:17:13;;;;;;;11.65;2.25;;;;;;;18.10;63.76;101507.53;6217184;23;20095;-76
2022/10/02 03:19:48;;;;;;;11.98;2.15;;;;;;;18.02;64.13;101509.34;6220926;22;20395;-76
2022/10/02 03:22:22;;;;;;;15.95;2.10;;;;;;;17.99;65.50;101520.78;6213628;22;20031;-76
2022/10/02 03:24:53;;;;;;;12.13;2.10;;;;;;;18.13;64.88;101518.94;6220862;23;20006;-74
2022/10/02 03:27:19;;;;;;;12.65;2.00;;;;;;;18.24;64.35;101527.63;6215049;22;20012;-74
2022/10/02 03:29:50;;;;;;;11.32;1.90;;;;;;;18.23;64.32;101518.00;6220452;23;20000;-75
2022/10/02 03:32:16;;;;;;;10.63;2.10;;;;;;;18.31;64.04;101527.59;6210190;22;20071;-74
2022/10/02 03:34:42;;;;;;;8.75;1.75;;;;;;;18.41;63.41;101526.66;6216869;22;20012;-74
2022/10/02 03:37:08;;;;;;;14.38;1.90;;;;;;;18.13;64.46;101518.06;6215319;22;20019;-76
2022/10/02 03:39:33;;;;;;;9.50;2.20;;;;;;;18.14;64.75;101527.72;6216699;22;20015;-75
2022/10/02 03:41:59;;;;;;;9.48;1.63;;;;;;;18.21;63.85;101519.75;6219452;22;20573;-75
2022/10/02 03:44:25;;;;;;;9.00;1.75;;;;;;;18.21;63.69;101522.41;6211055;22;20008;-75
2022/10/02 03:46:50;;;;;;;10.52;1.92;;;;;;;18.11;63.88;101520.69;6218715;22;20010;-76
2022/10/02 03:49:16;;;;;;;7.10;1.70;;;;;;;17.98;64.38;101526.97;6218689;23;20008;-75
2022/10/02 03:51:41;;;;;;;8.93;1.80;;;;;;;17.96;64.54;101523.44;6216685;22;20089;-74
2022/10/02 03:54:16;;;;;;;9.38;1.70;;;;;;;17.96;64.77;101527.84;6214441;22;20014;-74
2022/10/02 03:56:55;;;;;;;7.72;1.70;;;;;;;17.95;65.07;101515.53;6211741;22;20012;-74
2022/10/02 03:59:43;;;;;;;9.65;1.60;;;;;;;18.00;64.93;101519.91;6219789;22;20012;-73
2022/10/02 04:02:39;;;;;;;12.63;1.92;;;;;;;17.94;65.54;101524.34;6210391;22;20012;-76
2022/10/02 04:05:26;;;;;;;16.55;2.40;;;;;;;17.97;65.60;101516.41;6214394;22;20008;-76
2022/10/02 04:07:56;;;;;;;9.75;2.00;;;;;;;18.01;65.84;101520.78;6215174;23;20654;-75
2022/10/02 04:10:28;;;;;;;11.25;1.90;;;;;;;17.91;65.74;101516.47;6209039;22;20499;-76
2022/10/02 04:13:00;;;;;;;11.05;1.92;;;;;;;17.85;66.09;101514.75;6215228;22;20522;-76
2022/10/02 04:15:52;;;;;;;12.85;1.80;;;;;;;17.70;66.99;101520.09;6216789;22;20093;-76
2022/10/02 04:18:31;;;;;;;12.57;1.90;;;;;;;17.64;66.54;101521.00;6215829;22;20004;-76
2022/10/02 04:21:24;;;;;;;10.63;1.85;;;;;;;17.48;67.38;101515.78;6214235;22;20024;-75
2022/10/02 04:24:02;;;;;;;12.35;2.17;;;;;;;17.30;68.39;101525.53;6217704;23;20432;-76
2022/10/02 04:26:33;;;;;;;13.43;2.10;;;;;;;17.24;69.73;101522.03;6211707;22;20016;-74
2022/10/02 04:29:20;;;;;;;14.13;2.28;;;;;;;17.27;69.93;101529.91;6218210;22;20008;-74
2022/10/02 04:32:13;;;;;;;8.30;2.00;;;;;;;17.47;69.13;101530.72;6216469;23;20378;-75
2022/10/02 04:34:38;;;;;;;9.27;2.08;;;;;;;17.54;69.06;101535.09;6239060;22;20043;-76
2022/10/02 04:37:25;;;;;;;9.98;2.00;;;;;;;17.56;69.02;101543.88;6216878;22;20124;-76
2022/10/02 04:40:12;;;;;;;10.05;1.90;;;;;;;17.57;69.03;101539.44;6215278;22;20376;-76
2022/10/02 04:42:49;;;;;;;8.07;1.60;;;;;;;17.60;68.47;101548.28;6217410;23;20460;-75
2022/10/02 04:45:52;;;;;;;11.82;1.90;;;;;;;17.41;69.27;101552.72;6213918;22;20074;-75
2022/10/02 04:48:26;;;;;;;13.60;2.35;;;;;;;17.31;69.73;101548.38;6215492;23;20008;-74
2022/10/02 04:51:21;;;;;;;9.50;1.92;;;;;;;17.31;69.54;101555.41;6216572;22;20119;-75
2022/10/02 04:53:58;;;;;;;15.88;2.65;;;;;;;17.13;70.94;101566.88;6187976;22;20133;-74
2022/10/02 04:56:36;;;;;;;11.82;2.00;;;;;;;17.16;70.88;101574.75;6209685;22;20003;-75
2022/10/02 04:59:32;;;;;;;11.57;2.00;;;;;;;17.22;70.38;101572.09;6217867;22;20012;-75
2022/10/02 05:02:13;;;;;;;11.68;2.28;;;;;;;17.10;70.78;101581.78;6216569;23;20008;-75
2022/10/02 05:04:44;;;;;;;14.80;2.53;;;;;;;17.20;70.55;101586.19;6217844;22;20083;-75
2022/10/02 05:07:15;;;;;;;8.40;2.03;;;;;;;17.15;70.18;101593.19;6218147;22;20010;-76
2022/10/02 05:09:54;;;;;;;10.95;1.88;;;;;;;17.27;69.67;101598.44;6216495;22;20019;-75
2022/10/02 05:12:34;;;;;;;8.40;1.88;;;;;;;17.17;69.95;101594.09;6215572;22;20008;-76
2022/10/02 05:15:12;;;;;;;14.27;2.13;;;;;;;17.26;69.73;101602.81;6214649;22;20298;-75
2022/10/02 05:17:55;;;;;;;10.50;2.20;;;;;;;17.23;70.05;101602.84;6218432;23;20047;-75
2022/10/02 05:20:47;;;;;;;13.05;2.10;;;;;;;17.20;69.66;101605.47;6212782;22;20496;-74
2022/10/02 05:23:24;;;;;;;12.85;2.13;;;;;;;17.26;69.20;101589.66;6215642;22;20003;-75
2022/10/02 05:26:22;;;;;;;9.75;1.90;;;;;;;17.31;68.75;101595.81;6215760;23;20046;-75
2022/10/02 05:29:12;;;;;;;8.35;1.80;;;;;;;17.35;68.79;101609.84;6218027;22;20026;-75
2022/10/02 05:31:47;;;;;;;6.45;1.90;;;;;;;17.10;69.57;101605.50;6219799;22;20047;-77
2022/10/02 05:34:39;;;;;;;8.82;1.83;;;;;;;17.26;69.37;101618.63;6208846;22;20091;-74
2022/10/02 05:37:43;;;;;;;10.18;2.28;;;;;;;17.36;69.19;101623.03;6216332;22;20479;-76
2022/10/02 05:40:35;;;;;;;9.43;1.70;;;;;;;17.50;68.64;101619.47;6184188;22;20363;-76
2022/10/02 05:43:08;;;;;;;11.82;1.83;;;;;;;17.48;67.83;101615.97;6217702;22;20047;-76
2022/10/02 05:45:38;;;;;;;9.20;1.75;;;;;;;17.48;68.01;101613.31;6212264;22;20067;-75
2022/10/02 05:48:28;;;;;;;8.82;2.25;;;;;;;17.38;68.26;101623.03;6211164;23;20008;-76
2022/10/02 05:51:06;;;;;;;10.55;1.90;;;;;;;17.38;68.23;101631.78;6197231;22;20107;-74
2022/10/02 05:54:23;;;;;;;9.55;1.73;;;;;;;17.52;67.59;101617.69;6222117;22;20015;-77
2022/10/02 05:57:10;;;;;;;12.50;2.00;;;;;;;17.33;68.13;101628.28;6198040;22;20016;-76
2022/10/02 05:59:36;;;;;;;9.85;1.98;;;;;;;17.39;67.95;101633.56;6216006;23;20023;-76
2022/10/02 06:02:10;;;;;;;11.77;2.15;;;;;;;17.39;68.26;101640.56;6215277;23;20008;-74
2022/10/02 06:04:47;;;;;;;9.85;2.10;;;;;;;17.64;67.06;101633.50;6217864;22;20016;-74
2022/10/02 06:07:17;;;;;;;16.52;2.00;;;;;;;17.60;67.36;101642.28;6217355;22;20008;-76
2022/10/02 06:09:51;;;;;;;9.77;2.00;;;;;;;17.68;66.97;101636.16;6213954;22;20416;-76
2022/10/02 06:12:29;;;;;;;9.45;1.88;;;;;;;17.72;66.75;101635.25;6215532;22;20074;-75
2022/10/02 06:15:03;;;;;;;8.80;1.73;;;;;;;17.71;66.77;101638.75;6214089;22;20015;-75
2022/10/02 06:17:39;;;;;;;12.10;2.53;;;;;;;17.49;67.63;101644.97;6215511;22;20384;-75
2022/10/02 06:20:05;;;;;;;8.85;2.25;;;;;;;17.44;67.68;101646.75;6214440;22;20502;-75
2022/10/02 06:22:40;;;;;;;16.10;2.40;;;;;;;17.42;67.32;101651.13;6214756;22;20012;-75
2022/10/02 06:25:35;;;;;;;18.92;2.72;;;;;;;17.23;67.52;101654.69;6218004;22;20019;-74
2022/10/02 06:28:16;;;;;;;12.48;2.83;;;;;;;17.57;66.89;101656.34;6212226;22;20380;-74
2022/10/02 06:30:47;;;;;;;11.05;2.50;;;;;;;17.80;65.95;101657.22;6216002;22;20541;-74
2022/10/02 06:33:22;;;;;;;9.73;2.30;;;;;;;17.74;66.34;101659.00;6216888;22;20078;-76
2022/10/02 06:36:06;;;;;;;17.98;2.65;;;;;;;17.60;66.65;101661.66;6217790;22;20189;-76
2022/10/02 06:39:05;;;;;;;7.50;2.15;;;;;;;17.96;65.71;101667.69;6215132;22;20039;-74
2022/10/02 06:41:53;;;;;;;9.68;2.05;;;;;;;18.42;64.27;101663.91;6216367;22;20375;-74
2022/10/02 06:44:30;;;;;;;9.68;2.00;;;;;;;18.86;62.91;101676.81;6210337;22;20070;-74
2022/10/02 06:47:08;;;;;;;13.18;2.40;;;;;;;18.69;61.57;101678.72;6212640;23;20212;-75
2022/10/02 06:49:50;;;;;;;11.77;2.38;;;;;;;18.81;61.44;101686.56;6218227;22;20340;-76
2022/10/02 06:52:35;;;;;;;10.73;2.08;;;;;;;18.70;62.00;101695.44;6232506;22;20016;-74
2022/10/02 06:55:25;;;;;;;9.60;2.15;;;;;;;18.62;63.03;101691.09;6217192;23;20011;-74
2022/10/02 06:57:50;;;;;;;9.88;1.85;;;;;;;18.52;62.82;101691.13;6218397;22;20624;-75
2022/10/02 07:00:18;;;;;;;12.30;2.42;;;;;;;18.43;63.11;101692.06;6208958;22;20015;-76
2022/10/02 07:02:50;;;;;;;10.63;2.00;;;;;;;19.02;61.58;101696.09;6219459;22;20479;-74
2022/10/02 07:05:28;;;;;;;8.75;2.05;;;;;;;19.46;60.26;101706.28;6213090;23;20061;-74
2022/10/02 07:08:36;;;;;;;11.00;1.98;;;;;;;19.18;60.49;101700.34;6215427;23;20074;-76
2022/10/02 07:11:21;;;;;;;12.55;2.22;;;;;;;19.29;60.48;101700.25;6195537;22;20499;-76
2022/10/02 07:13:46;;;;;;;13.05;2.53;;;;;;;18.89;60.85;101699.72;6218441;22;20015;-74
2022/10/02 07:16:41;;;;;;;12.23;2.10;;;;;;;18.80;60.93;101699.78;6209183;22;20008;-75
2022/10/02 07:19:15;;;;;;;14.93;2.15;;;;;;;18.80;61.14;101700.66;6216889;22;20642;-75
2022/10/02 07:21:53;;;;;;;11.80;2.30;;;;;;;18.66;62.65;101706.94;6217944;23;20039;-75
2022/10/02 07:25:26;;;;;;;11.30;1.90;;;;;;;18.73;60.88;101703.34;6214240;22;20019;-75
2022/10/02 07:27:57;;;;;;;10.07;2.10;;;;;;;18.81;61.83;101710.34;6167148;22;20017;-75
2022/10/02 07:30:22;;;;;;;11.57;2.00;;;;;;;18.93;61.84;101706.72;6209836;22;20479;-75
2022/10/02 07:32:56;;;;;;;16.88;2.47;;;;;;;18.90;62.14;101715.56;6218885;22;20102;-74
2022/10/02 07:35:32;;;;;;;9.45;1.85;;;;;;;18.77;62.20;101724.47;6213669;22;20195;-74
2022/10/02 07:38:06;;;;;;;9.23;1.73;;;;;;;19.07;61.61;101717.19;6216588;23;20004;-74
2022/10/02 07:40:42;;;;;;;12.88;2.30;;;;;;;18.81;63.47;101720.03;6210630;22;20070;-75
2022/10/02 07:43:46;;;;;;;13.13;2.40;;;;;;;19.18;61.66;101720.63;6239382;22;20561;-74
2022/10/02 07:46:20;;;;;;;16.63;2.63;;;;;;;19.10;61.42;101718.03;6209571;22;20414;-73
2022/10/02 07:48:53;;;;;;;12.63;2.08;;;;;;;18.81;61.37;101725.31;6216064;23;20247;-74
2022/10/02 07:51:46;;;;;;;17.30;2.25;;;;;;;19.38;61.33;101730.13;6217220;22;20007;-74
2022/10/02 07:54:21;;;;;;;11.30;1.73;;;;;;;19.42;60.20;101733.63;6210030;22;20534;-75
2022/10/02 07:56:48;;;;;;;10.70;2.13;;;;;;;19.34;61.12;101736.31;6214504;23;20012;-75
2022/10/02 07:59:16;;;;;;;8.40;2.03;;;;;;;19.52;60.04;101745.03;6211981;22;20031;-75
2022/10/02 08:01:43;;;;;;;14.73;2.20;;;;;;;19.57;59.93;101748.50;6218057;22;20042;-75
2022/10/02 08:04:29;;;;;;;12.18;2.28;;;;;;;19.54;59.50;101748.53;6211625;22;20234;-76
2022/10/02 08:07:01;;;;;;;11.85;2.03;;;;;;;19.48;60.12;101749.47;6217233;22;20031;-75
2022/10/02 08:09:46;;;;;;;13.63;2.33;;;;;;;19.62;59.55;101759.91;6218804;22;20065;-76
2022/10/02 08:12:31;;;;;;;11.75;2.17;;;;;;;19.60;60.01;101752.00;6208156;23;20023;-74
2022/10/02 08:14:58;;;;;;;11.32;1.73;;;;;;;19.90;59.02;101749.91;6218952;22;20327;-76
2022/10/02 08:17:26;;;;;;;17.40;2.40;;;;;;;20.00;58.54;101764.81;6211522;22;20012;-76
2022/10/02 08:19:57;;;;;;;10.68;2.15;;;;;;;19.95;59.13;101766.59;6216635;22;20485;-75
2022/10/02 08:22:29;;;;;;;14.32;2.40;;;;;;;19.65;59.08;101768.69;6213417;22;20468;-75
2022/10/02 08:24:58;;;;;;;14.68;2.10;;;;;;;19.61;60.18;101780.19;6218610;22;20079;-75
2022/10/02 08:27:42;;;;;;;9.82;2.38;;;;;;;19.76;59.95;101781.84;6219545;22;20436;-75
2022/10/02 08:30:12;;;;;;;12.80;2.30;;;;;;;19.85;58.18;101781.72;6212807;22;20038;-75
2022/10/02 08:32:37;;;;;;;11.02;2.15;;;;;;;19.50;58.57;101795.28;6222911;22;20087;-75
2022/10/02 08:35:17;;;;;;;12.18;2.45;;;;;;;19.49;58.63;101795.31;6220939;22;20341;-75
2022/10/02 08:38:28;;;;;;;11.95;2.30;;;;;;;19.54;58.51;101796.13;6214080;23;20012;-75
2022/10/02 08:41:18;;;;;;;10.63;2.22;;;;;;;19.76;58.65;101801.19;6184939;23;20042;-75
2022/10/02 08:44:05;;;;;;;10.20;2.35;;;;;;;20.20;57.94;101807.81;6218375;22;20628;-75
2022/10/02 08:46:33;;;;;;;12.20;2.08;;;;;;;20.14;57.12;101803.44;6217767;22;20008;-77
2022/10/02 08:49:36;;;;;;;10.95;2.08;;;;;;;19.95;58.21;101809.84;6217544;22;20474;-76
2022/10/02 08:52:28;;;;;;;15.32;2.40;;;;;;;19.44;58.71;101803.25;6220578;23;20011;-77
2022/10/02 08:55:31;;;;;;;10.55;1.90;;;;;;;19.49;58.75;101808.53;6209650;22;20019;-76
2022/10/02 08:58:17;;;;;;;11.60;2.50;;;;;;;19.50;58.31;101811.16;6219472;23;20012;-75
2022/10/02 09:01:23;;;;;;;13.18;2.42;;;;;;;19.76;58.48;101816.22;6213403;22;20047;-76
2022/10/02 09:04:14;;;;;;;13.50;2.20;;;;;;;19.77;58.51;101821.47;6202015;22;20008;-76
2022/10/02 09:07:18;;;;;;;12.75;2.20;;;;;;;20.07;58.28;101830.00;6188335;22;20393;-76
2022/10/02 09:10:33;;;;;;;11.23;2.50;;;;;;;20.17;58.39;101827.25;6218099;23;20337;-76
2022/10/02 09:13:01;;;;;;;;;;;;;;;20.21;56.20;101826.31;6214070;22;20011;-74
2022/10/02 09:15:52;;;;;;;9.07;1.92;;;;;;;20.09;55.12;101838.81;6218298;23;19912;-75
2022/10/02 09:18:44;;;;;;;7.97;1.73;;;;;;;20.03;54.73;101838.88;6197484;22;20545;-76
2022/10/02 09:21:34;;;;;;;9.65;1.92;;;;;;;20.01;53.91;101838.88;6220552;22;20407;-75
2022/10/02 09:24:15;;;;;;;10.15;1.70;;;;;;;20.01;53.16;101841.53;6207546;23;20407;-76
2022/10/02 09:26:49;;;;;;;13.55;2.17;;;;;;;20.07;54.33;101845.88;6214917;23;20016;-76
2022/10/02 09:29:59;;;;;;;8.52;2.00;;;;;;;20.46;53.57;101840.19;6219138;23;20039;-75
2022/10/02 09:32:52;;;;;;;11.60;2.13;;;;;;;20.68;53.07;101840.78;6209964;22;20516;-76
2022/10/02 09:35:40;;;;;;;11.52;2.00;;;;;;;20.96;50.98;101836.00;6216042;22;20018;-76
2022/10/02 09:38:14;;;;;;;10.82;2.13;;;;;;;21.01;51.44;101845.66;6209303;22;20012;-75
2022/10/02 09:40:52;;;;;;;8.90;2.08;;;;;;;20.98;52.02;101847.47;6217534;23;20008;-73
2022/10/02 09:43:31;;;;;;;9.45;2.22;;;;;;;20.34;53.64;101855.34;6215911;22;20020;-74
2022/10/02 09:46:22;;;;;;;8.98;1.98;;;;;;;20.43;52.35;101863.22;6190553;23;20015;-76
2022/10/02 09:49:00;;;;;;;13.30;2.33;;;;;;;20.34;53.57;101868.59;6215655;22;20013;-76
2022/10/02 09:51:41;;;;;;;10.57;1.77;;;;;;;20.83;53.27;101864.47;6215770;23;20008;-75
2022/10/02 09:54:21;;;;;;;12.90;2.30;;;;;;;20.62;52.95;101865.59;6214684;22;20395;-76
2022/10/02 09:56:59;;;;;;;14.70;2.60;;;;;;;20.49;54.45;101871.94;6216986;23;20008;-74
2022/10/02 09:59:43;;;;;;;16.70;2.35;;;;;;;20.73;53.29;101864.59;6215335;23;20004;-74
2022/10/02 10:02:34;;;;;;;14.15;2.40;;;;;;;20.31;52.35;101864.16;6209673;22;20012;-74
2022/10/02 10:05:33;;;;;;;12.73;2.15;;;;;;;20.56;52.65;101872.75;6216524;23;20235;-74
2022/10/02 10:08:04;;;;;;;14.05;2.45;;;;;;;20.66;51.78;101877.06;6211310;22;20012;-73
2022/10/02 10:10:45;;;;;;;12.95;2.30;;;;;;;20.81;52.52;101881.25;6214197;23;20038;-75
2022/10/02 10:13:33;;;;;;;16.40;2.80;;;;;;;20.75;52.39;101891.94;6213353;22;20099;-75
2022/10/02 10:16:50;;;;;;;9.57;2.38;;;;;;;21.10;52.28;101888.84;6163672;22;20008;-76
2022/10/02 10:19:53;;;;;;;9.88;2.08;;;;;;;20.76;50.80;101894.59;6179524;23;20132;-74
2022/10/02 10:22:56;;;;;;;10.48;2.40;;;;;;;20.96;50.68;101905.81;6179620;23;20208;-74
2022/10/02 10:25:49;;;;;;;14.07;2.70;;;;;;;20.53;49.44;101899.28;6206503;22;20019;-75
2022/10/02 10:28:52;;;;;;;11.40;2.22;;;;;;;20.54;49.54;101907.22;6217846;23;20084;-75
2022/10/02 10:31:43;;;;;;;15.35;2.67;;;;;;;20.77;49.64;101916.66;6213997;23;20039;-77
2022/10/02 10:34:56;;;;;;;9.95;2.35;;;;;;;20.92;48.64;101914.69;6200985;22;20459;-74
2022/10/02 10:40:48;;;;;;;11.55;2.40;;;;;;;20.47;48.24;101926.72;6206782;22;20407;-76
2022/10/02 10:43:36;;;;;;;14.95;2.88;;;;;;;20.72;49.83;101924.69;6205491;23;20352;-75
2022/10/02 10:46:54;;;;;;;16.38;2.40;;;;;;;20.93;50.00;101921.75;6205646;22;20206;-74
2022/10/02 10:49:35;;;;;;;15.65;2.22;;;;;;;20.50;50.88;101920.50;6196889;22;20035;-75
2022/10/02 10:52:41;;;;;;;14.48;2.40;;;;;;;20.94;50.97;101928.81;6213153;23;20012;-75
2022/10/02 10:55:18;;;;;;;11.10;2.60;;;;;;;20.41;50.82;101933.84;6211906;22;20016;-75
2022/10/02 10:58:08;;;;;;;14.02;2.55;;;;;;;20.52;50.34;101927.53;6211425;23;20444;-75
2022/10/02 11:00:46;;;;;;;12.60;2.40;;;;;;;20.22;49.87;101925.19;6214779;22;20012;-75
2022/10/02 11:03:23;;;;;;;10.13;2.28;;;;;;;20.36;49.63;101935.69;6220404;22;20114;-76
2022/10/02 11:06:04;;;;;;;9.52;2.35;;;;;;;20.57;50.13;101944.25;6213527;22;20759;-74
2022/10/02 11:09:03;;;;;;;13.68;2.33;;;;;;;20.28;52.11;101946.31;6216375;23;20367;-75
2022/10/02 11:11:51;;;;;;;11.75;2.33;;;;;;;20.17;51.41;101948.19;6213315;22;20012;-75
2022/10/02 11:14:52;;;;;;;15.60;2.50;;;;;;;20.55;51.50;101956.63;6223326;22;20419;-75
2022/10/02 11:17:30;;;;;;;13.60;2.40;;;;;;;20.82;50.57;101957.22;6219627;23;20172;-74
2022/10/02 11:20:17;;;;;;;9.45;2.03;;;;;;;20.94;50.62;101951.78;6216962;22;20367;-75
2022/10/02 11:23:01;;;;;;;11.63;2.22;;;;;;;21.08;49.07;101959.56;6219714;23;20012;-76
2022/10/02 11:25:56;;;;;;;12.77;2.33;;;;;;;21.17;50.20;101951.53;6209934;22;20234;-74
2022/10/02 11:28:50;;;;;;;12.00;2.50;;;;;;;21.25;51.00;101952.31;6215160;22;20015;-75
2022/10/02 11:31:37;;;;;;;11.65;2.10;;;;;;;20.54;52.98;101964.63;6215862;22;20423;-77
2022/10/02 11:34:39;;;;;;;10.23;2.00;;;;;;;20.77;54.41;101962.59;6219215;23;20016;-75
2022/10/02 11:37:24;;;;;;;14.07;2.35;;;;;;;20.16;57.09;101971.13;6212537;22;20012;-75
2022/10/02 11:40:02;;;;;;;12.85;2.40;;;;;;;20.15;56.97;101973.78;6201430;22;20114;-75
2022/10/02 11:42:47;;;;;;;13.98;2.40;;;;;;;19.83;56.44;101977.56;6216378;22;20064;-75
2022/10/02 11:45:42;;;;;;;13.02;2.25;;;;;;;20.25;56.81;101972.78;6218827;22;20057;-75
2022/10/02 11:48:32;;;;;;;15.63;2.60;;;;;;;20.47;55.04;101976.19;6215491;22;20099;-75
2022/10/02 11:51:00;;;;;;;14.60;2.75;;;;;;;19.94;54.76;101972.22;6220229;23;20008;-75
2022/10/02 11:53:38;;;;;;;11.23;2.20;;;;;;;19.77;54.86;101982.00;6211398;22;20012;-74
2022/10/02 11:56:10;;;;;;;17.35;2.70;;;;;;;19.67;55.11;101967.97;6217489;22;20012;-75
2022/10/02 11:58:59;;;;;;;15.15;2.70;;;;;;;19.68;55.17;101980.31;6218547;23;20018;-76
2022/10/02 12:02:06;;;;;;;13.70;2.50;;;;;;;19.59;55.60;101982.13;6210726;22;20234;-77
2022/10/02 12:05:02;;;;;;;11.20;2.38;;;;;;;19.83;53.68;101990.78;6185687;23;20104;-75
2022/10/02 12:07:45;;;;;;;12.50;2.35;;;;;;;19.65;53.32;101990.03;6210823;23;20351;-75
2022/10/02 12:11:10;;;;;;;11.63;2.15;;;;;;;19.76;53.03;101999.66;6221519;23;20083;-75
2022/10/02 12:13:59;;;;;;;13.63;2.20;;;;;;;19.53;52.59;101998.91;6179250;23;20095;-75
2022/10/02 12:16:55;;;;;;;14.00;2.08;;;;;;;19.25;52.71;102002.56;6180850;23;20106;-76
2022/10/02 12:19:33;;;;;;;12.43;2.47;;;;;;;19.60;52.73;102010.34;6197505;22;20008;-76
2022/10/02 12:27:51;;;;;;;14.48;2.10;;;;;;;20.61;51.27;102014.03;6213474;23;20081;-77
2022/10/02 12:30:25;;;;;;;13.95;2.28;;;;;;;21.28;51.95;102016.81;6210493;22;20024;-76
2022/10/02 12:33:25;;;;;;;17.27;2.63;;;;;;;20.87;50.75;102008.41;6214231;22;20070;-75